Terminal Aerodrome Forecast
Issued by NWS Salt Lake City, UT

Home | Current Version | Previous Version | Text Only | Print | Product List | Glossary On
Versions: 1 2 3 4 5 6 7 8 9 10 11
000
FTUS45 KSLC 140548
TAFCDC
TAF
KCDC 140548Z 1406/1506 VRB05KT P6SM SKC
     FM140900 02010KT P6SM SKC
     FM150200 06006KT P6SM SKC=

USA.gov is the U.S. government's official web portal to all federal, state and local government web resources and services.